sensor_id;sensor_type;location;lat;lon;timestamp;temperature;humidity
27759;DHT22;15148;48.972;12.794;2022-10-01T00:03:09;8.40;99.90
27759;DHT22;15148;48.972;12.794;2022-10-01T00:08:12;8.40;99.90
27759;DHT22;15148;48.972;12.794;2022-10-01T00:13:14;8.50;99.90
27759;DHT22;15148;48.972;12.794;2022-10-01T00:18:16;8.50;99.90
27759;DHT22;15148;48.972;12.794;2022-10-01T00:23:18;8.50;99.90
27759;DHT22;15148;48.972;12.794;2022-10-01T00:28:20;8.60;99.90
27759;DHT22;15148;48.972;12.794;2022-10-01T00:33:22;8.60;99.90
27759;DHT22;15148;48.972;12.794;2022-10-01T00:38:24;8.70;99.90
27759;DHT22;15148;48.972;12.794;2022-10-01T00:43:28;8.80;99.90
27759;DHT22;15148;48.972;12.794;2022-10-01T00:48:35;8.80;99.90
27759;DHT22;15148;48.972;12.794;2022-10-01T00:53:39;8.80;99.90
27759;DHT22;15148;48.972;12.794;2022-10-01T00:58:42;8.90;99.90
27759;DHT22;15148;48.972;12.794;2022-10-01T01:03:44;8.90;99.90
27759;DHT22;15148;48.972;12.794;2022-10-01T01:08:46;9.00;99.90
27759;DHT22;15148;48.972;12.794;2022-10-01T01:14:05;9.10;99.90
27759;DHT22;15148;48.972;12.794;2022-10-01T01:35:03;9.20;99.90
27759;DHT22;15148;48.972;12.794;2022-10-01T01:40:07;9.30;99.90
27759;DHT22;15148;48.972;12.794;2022-10-01T01:45:16;9.30;99.90
27759;DHT22;15148;48.972;12.794;2022-10-01T01:50:19;9.30;99.90
27759;DHT22;15148;48.972;12.794;2022-10-01T01:55:22;9.30;99.90
27759;DHT22;15148;48.972;12.794;2022-10-01T02:00:25;9.30;99.90
27759;DHT22;15148;48.972;12.794;2022-10-01T02:05:34;9.30;99.90
27759;DHT22;15148;48.972;12.794;2022-10-01T02:16:21;9.40;99.90
27759;DHT22;15148;48.972;12.794;2022-10-01T02:26:56;9.40;99.90
27759;DHT22;15148;48.972;12.794;2022-10-01T02:32:00;9.40;99.90
27759;DHT22;15148;48.972;12.794;2022-10-01T02:37:03;9.40;99.90
27759;DHT22;15148;48.972;12.794;2022-10-01T02:42:07;9.40;99.90
27759;DHT22;15148;48.972;12.794;2022-10-01T02:47:17;9.40;99.90
27759;DHT22;15148;48.972;12.794;2022-10-01T02:52:34;9.40;99.90
27759;DHT22;15148;48.972;12.794;2022-10-01T02:57:38;9.40;99.90
27759;DHT22;15148;48.972;12.794;2022-10-01T03:02:40;9.40;99.90
27759;DHT22;15148;48.972;12.794;2022-10-01T03:07:42;9.40;99.90
27759;DHT22;15148;48.972;12.794;2022-10-01T03:12:44;9.40;99.90
27759;DHT22;15148;48.972;12.794;2022-10-01T03:17:51;9.40;99.90
27759;DHT22;15148;48.972;12.794;2022-10-01T03:22:53;9.40;99.90
27759;DHT22;15148;48.972;12.794;2022-10-01T03:27:54;9.50;99.90
27759;DHT22;15148;48.972;12.794;2022-10-01T03:32:56;9.50;99.90
27759;DHT22;15148;48.972;12.794;2022-10-01T03:37:58;9.50;99.90
27759;DHT22;15148;48.972;12.794;2022-10-01T03:43:00;9.50;99.90
27759;DHT22;15148;48.972;12.794;2022-10-01T03:48:02;9.50;99.90
27759;DHT22;15148;48.972;12.794;2022-10-01T03:53:04;9.50;99.90
27759;DHT22;15148;48.972;12.794;2022-10-01T03:58:07;9.50;99.90
27759;DHT22;15148;48.972;12.794;2022-10-01T04:03:10;9.50;99.90
27759;DHT22;15148;48.972;12.794;2022-10-01T04:08:12;9.50;99.90
27759;DHT22;15148;48.972;12.794;2022-10-01T04:13:15;9.40;99.90
27759;DHT22;15148;48.972;12.794;2022-10-01T04:18:17;9.40;99.90
27759;DHT22;15148;48.972;12.794;2022-10-01T04:23:22;9.40;99.90
27759;DHT22;15148;48.972;12.794;2022-10-01T04:28:24;9.40;99.90
27759;DHT22;15148;48.972;12.794;2022-10-01T04:33:25;9.40;99.90
27759;DHT22;15148;48.972;12.794;2022-10-01T04:38:27;9.50;99.90
27759;DHT22;15148;48.972;12.794;2022-10-01T04:43:29;9.50;99.90
27759;DHT22;15148;48.972;12.794;2022-10-01T04:48:31;9.50;99.90
27759;DHT22;15148;48.972;12.794;2022-10-01T04:53:33;9.50;99.90
27759;DHT22;15148;48.972;12.794;2022-10-01T04:58:34;9.50;99.90
27759;DHT22;15148;48.972;12.794;2022-10-01T05:03:36;9.50;99.90
27759;DHT22;15148;48.972;12.794;2022-10-01T05:08:38;9.40;99.90
27759;DHT22;15148;48.972;12.794;2022-10-01T05:13:40;9.40;99.90
27759;DHT22;15148;48.972;12.794;2022-10-01T05:18:42;9.50;99.90
27759;DHT22;15148;48.972;12.794;2022-10-01T05:23:44;9.50;99.90
27759;DHT22;15148;48.972;12.794;2022-10-01T05:28:46;9.50;99.90
27759;DHT22;15148;48.972;12.794;2022-10-01T05:33:47;9.50;99.90
27759;DHT22;15148;48.972;12.794;2022-10-01T05:38:49;9.50;99.90
27759;DHT22;15148;48.972;12.794;2022-10-01T05:43:52;9.50;99.90
27759;DHT22;15148;48.972;12.794;2022-10-01T05:48:54;9.50;99.90
27759;DHT22;15148;48.972;12.794;2022-10-01T05:53:56;9.50;99.90
27759;DHT22;15148;48.972;12.794;2022-10-01T05:58:59;9.60;99.90
27759;DHT22;15148;48.972;12.794;2022-10-01T06:04:01;9.60;99.90
27759;DHT22;15148;48.972;12.794;2022-10-01T06:09:03;9.70;99.90
27759;DHT22;15148;48.972;12.794;2022-10-01T06:14:05;9.70;99.90
27759;DHT22;15148;48.972;12.794;2022-10-01T06:19:07;9.70;99.90
27759;DHT22;15148;48.972;12.794;2022-10-01T06:24:09;9.80;99.90
27759;DHT22;15148;48.972;12.794;2022-10-01T06:29:11;9.90;99.90
27759;DHT22;15148;48.972;12.794;2022-10-01T06:34:13;9.90;99.90
27759;DHT22;15148;48.972;12.794;2022-10-01T06:39:16;9.90;99.90
27759;DHT22;15148;48.972;12.794;2022-10-01T06:44:18;9.90;99.90
27759;DHT22;15148;48.972;12.794;2022-10-01T06:49:20;10.00;99.90
27759;DHT22;15148;48.972;12.794;2022-10-01T06:54:23;10.00;99.90
27759;DHT22;15148;48.972;12.794;2022-10-01T06:59:26;10.10;99.90
27759;DHT22;15148;48.972;12.794;2022-10-01T07:04:28;10.30;99.90
27759;DHT22;15148;48.972;12.794;2022-10-01T07:09:30;10.40;99.90
27759;DHT22;15148;48.972;12.794;2022-10-01T07:14:31;10.50;99.90
27759;DHT22;15148;48.972;12.794;2022-10-01T07:19:33;10.60;99.90
27759;DHT22;15148;48.972;12.794;2022-10-01T07:24:35;10.60;99.90
27759;DHT22;15148;48.972;12.794;2022-10-01T07:29:37;10.80;99.90
27759;DHT22;15148;48.972;12.794;2022-10-01T07:34:39;10.90;99.90
27759;DHT22;15148;48.972;12.794;2022-10-01T07:39:40;11.00;99.90
27759;DHT22;15148;48.972;12.794;2022-10-01T07:44:42;11.10;99.90
27759;DHT22;15148;48.972;12.794;2022-10-01T07:49:44;11.00;99.90
27759;DHT22;15148;48.972;12.794;2022-10-01T07:54:46;11.00;99.90
27759;DHT22;15148;48.972;12.794;2022-10-01T07:59:48;10.90;99.90
27759;DHT22;15148;48.972;12.794;2022-10-01T08:04:56;10.90;99.90
27759;DHT22;15148;48.972;12.794;2022-10-01T08:10:18;10.80;99.90
27759;DHT22;15148;48.972;12.794;2022-10-01T08:15:20;10.80;99.90
27759;DHT22;15148;48.972;12.794;2022-10-01T08:20:22;10.90;99.90
27759;DHT22;15148;48.972;12.794;2022-10-01T08:25:24;10.80;99.90
27759;DHT22;15148;48.972;12.794;2022-10-01T08:30:26;10.90;99.90
27759;DHT22;15148;48.972;12.794;2022-10-01T08:35:29;10.90;99.90
27759;DHT22;15148;48.972;12.794;2022-10-01T08:40:33;11.00;99.90
27759;DHT22;15148;48.972;12.794;2022-10-01T08:45:52;11.00;99.90
27759;DHT22;15148;48.972;12.794;2022-10-01T08:51:04;10.90;99.90
27759;DHT22;15148;48.972;12.794;2022-10-01T08:56:24;11.10;99.90
27759;DHT22;15148;48.972;12.794;2022-10-01T09:01:28;11.20;99.90
27759;DHT22;15148;48.972;12.794;2022-10-01T09:06:30;11.40;99.90
27759;DHT22;15148;48.972;12.794;2022-10-01T09:16:58;11.70;99.90
27759;DHT22;15148;48.972;12.794;2022-10-01T09:22:18;11.80;99.90
27759;DHT22;15148;48.972;12.794;2022-10-01T09:27:26;11.90;99.90
27759;DHT22;15148;48.972;12.794;2022-10-01T09:38:01;12.10;99.90
27759;DHT22;15148;48.972;12.794;2022-10-01T09:43:04;12.10;99.90
27759;DHT22;15148;48.972;12.794;2022-10-01T09:58:51;12.00;99.90
27759;DHT22;15148;48.972;12.794;2022-10-01T10:03:56;12.00;99.90
27759;DHT22;15148;48.972;12.794;2022-10-01T10:08:58;12.10;99.90
27759;DHT22;15148;48.972;12.794;2022-10-01T10:14:02;12.10;99.90
27759;DHT22;15148;48.972;12.794;2022-10-01T10:19:22;12.10;99.90
27759;DHT22;15148;48.972;12.794;2022-10-01T10:24:32;12.10;99.90
27759;DHT22;15148;48.972;12.794;2022-10-01T10:29:36;12.10;99.90
27759;DHT22;15148;48.972;12.794;2022-10-01T10:34:40;12.20;99.90
27759;DHT22;15148;48.972;12.794;2022-10-01T10:39:48;12.30;99.90
27759;DHT22;15148;48.972;12.794;2022-10-01T10:44:54;12.40;99.90
27759;DHT22;15148;48.972;12.794;2022-10-01T10:49:59;12.40;99.90
27759;DHT22;15148;48.972;12.794;2022-10-01T10:55:27;12.30;99.90
27759;DHT22;15148;48.972;12.794;2022-10-01T11:00:42;12.20;99.90
27759;DHT22;15148;48.972;12.794;2022-10-01T11:05:45;12.10;99.90
27759;DHT22;15148;48.972;12.794;2022-10-01T11:26:58;11.50;99.90
27759;DHT22;15148;48.972;12.794;2022-10-01T11:38:00;11.10;99.90
27759;DHT22;15148;48.972;12.794;2022-10-01T11:48:30;10.90;99.90
27759;DHT22;15148;48.972;12.794;2022-10-01T11:53:48;10.80;99.90
27759;DHT22;15148;48.972;12.794;2022-10-01T11:59:00;10.70;99.90
27759;DHT22;15148;48.972;12.794;2022-10-01T12:26:14;10.50;99.90
27759;DHT22;15148;48.972;12.794;2022-10-01T12:42:46;10.50;99.90
27759;DHT22;15148;48.972;12.794;2022-10-01T12:53:35;10.50;99.90
27759;DHT22;15148;48.972;12.794;2022-10-01T12:59:15;10.50;99.90
27759;DHT22;15148;48.972;12.794;2022-10-01T13:04:33;10.50;99.90
27759;DHT22;15148;48.972;12.794;2022-10-01T13:15:01;10.50;99.90
27759;DHT22;15148;48.972;12.794;2022-10-01T13:20:26;10.50;99.90
27759;DHT22;15148;48.972;12.794;2022-10-01T13:25:59;10.50;99.90
27759;DHT22;15148;48.972;12.794;2022-10-01T13:31:13;10.40;99.90
27759;DHT22;15148;48.972;12.794;2022-10-01T13:36:28;10.40;99.90
27759;DHT22;15148;48.972;12.794;2022-10-01T13:41:31;10.40;99.90
27759;DHT22;15148;48.972;12.794;2022-10-01T13:46:50;10.40;99.90
27759;DHT22;15148;48.972;12.794;2022-10-01T13:51:53;10.40;99.90
27759;DHT22;15148;48.972;12.794;2022-10-01T13:57:08;10.40;99.90
27759;DHT22;15148;48.972;12.794;2022-10-01T14:02:59;10.40;99.90
27759;DHT22;15148;48.972;12.794;2022-10-01T14:13:13;10.40;99.90
27759;DHT22;15148;48.972;12.794;2022-10-01T14:18:39;10.40;99.90
27759;DHT22;15148;48.972;12.794;2022-10-01T14:23:59;10.40;99.90
27759;DHT22;15148;48.972;12.794;2022-10-01T14:29:29;10.50;99.90
27759;DHT22;15148;48.972;12.794;2022-10-01T14:39:46;10.50;99.90
27759;DHT22;15148;48.972;12.794;2022-10-01T14:45:00;10.50;99.90
27759;DHT22;15148;48.972;12.794;2022-10-01T14:50:15;10.50;99.90
27759;DHT22;15148;48.972;12.794;2022-10-01T14:55:21;10.50;99.90
27759;DHT22;15148;48.972;12.794;2022-10-01T15:00:28;10.50;99.90
27759;DHT22;15148;48.972;12.794;2022-10-01T15:05:34;10.50;99.90
27759;DHT22;15148;48.972;12.794;2022-10-01T15:10:40;10.50;99.90
27759;DHT22;15148;48.972;12.794;2022-10-01T15:15:45;10.60;99.90
27759;DHT22;15148;48.972;12.794;2022-10-01T15:25:55;10.50;99.90
27759;DHT22;15148;48.972;12.794;2022-10-01T15:31:04;10.60;99.90
27759;DHT22;15148;48.972;12.794;2022-10-01T15:36:16;10.60;99.90
27759;DHT22;15148;48.972;12.794;2022-10-01T15:41:22;10.50;99.90
27759;DHT22;15148;48.972;12.794;2022-10-01T15:46:32;10.60;99.90
27759;DHT22;15148;48.972;12.794;2022-10-01T15:51:45;10.60;99.90
27759;DHT22;15148;48.972;12.794;2022-10-01T15:57:13;10.60;99.90
27759;DHT22;15148;48.972;12.794;2022-10-01T16:02:25;10.60;99.90
27759;DHT22;15148;48.972;12.794;2022-10-01T16:07:29;10.60;99.90
27759;DHT22;15148;48.972;12.794;2022-10-01T16:12:31;10.60;99.90
27759;DHT22;15148;48.972;12.794;2022-10-01T16:17:36;10.60;99.90
27759;DHT22;15148;48.972;12.794;2022-10-01T16:22:38;10.60;99.90
27759;DHT22;15148;48.972;12.794;2022-10-01T16:27:48;10.60;99.90
27759;DHT22;15148;48.972;12.794;2022-10-01T16:32:50;10.70;99.90
27759;DHT22;15148;48.972;12.794;2022-10-01T16:37:53;10.60;99.90
27759;DHT22;15148;48.972;12.794;2022-10-01T16:42:58;10.60;99.90
27759;DHT22;15148;48.972;12.794;2022-10-01T16:48:10;10.60;99.90
27759;DHT22;15148;48.972;12.794;2022-10-01T16:53:15;10.60;99.90
27759;DHT22;15148;48.972;12.794;2022-10-01T16:58:17;10.70;99.90
27759;DHT22;15148;48.972;12.794;2022-10-01T17:03:21;10.70;99.90
27759;DHT22;15148;48.972;12.794;2022-10-01T17:08:23;10.60;99.90
27759;DHT22;15148;48.972;12.794;2022-10-01T17:13:29;10.60;99.90
27759;DHT22;15148;48.972;12.794;2022-10-01T17:18:33;10.60;99.90
27759;DHT22;15148;48.972;12.794;2022-10-01T17:23:34;10.60;99.90
27759;DHT22;15148;48.972;12.794;2022-10-01T17:28:37;10.60;99.90
27759;DHT22;15148;48.972;12.794;2022-10-01T17:33:39;10.60;99.90
27759;DHT22;15148;48.972;12.794;2022-10-01T17:38:40;10.60;99.90
27759;DHT22;15148;48.972;12.794;2022-10-01T17:43:43;10.60;99.90
27759;DHT22;15148;48.972;12.794;2022-10-01T17:48:47;10.60;99.90
27759;DHT22;15148;48.972;12.794;2022-10-01T17:53:50;10.60;99.90
27759;DHT22;15148;48.972;12.794;2022-10-01T17:58:52;10.60;99.90
27759;DHT22;15148;48.972;12.794;2022-10-01T18:03:55;10.60;99.90
27759;DHT22;15148;48.972;12.794;2022-10-01T18:08:57;10.60;99.90
27759;DHT22;15148;48.972;12.794;2022-10-01T18:13:59;10.60;99.90
27759;DHT22;15148;48.972;12.794;2022-10-01T18:19:02;10.70;99.90
27759;DHT22;15148;48.972;12.794;2022-10-01T18:24:24;10.70;99.90
27759;DHT22;15148;48.972;12.794;2022-10-01T18:29:26;10.70;99.90
27759;DHT22;15148;48.972;12.794;2022-10-01T18:34:42;10.70;99.90
27759;DHT22;15148;48.972;12.794;2022-10-01T18:40:06;10.70;99.90
27759;DHT22;15148;48.972;12.794;2022-10-01T18:50:34;10.70;99.90
27759;DHT22;15148;48.972;12.794;2022-10-01T18:56:17;10.70;99.90
27759;DHT22;15148;48.972;12.794;2022-10-01T19:02:04;10.80;99.90
27759;DHT22;15148;48.972;12.794;2022-10-01T19:07:36;10.70;99.90
27759;DHT22;15148;48.972;12.794;2022-10-01T19:29:00;10.80;99.90
27759;DHT22;15148;48.972;12.794;2022-10-01T19:34:15;10.70;99.90
27759;DHT22;15148;48.972;12.794;2022-10-01T19:39:21;10.80;99.90
27759;DHT22;15148;48.972;12.794;2022-10-01T19:44:34;10.80;99.90
27759;DHT22;15148;48.972;12.794;2022-10-01T19:49:38;10.80;99.90
27759;DHT22;15148;48.972;12.794;2022-10-01T19:54:47;10.80;99.90
27759;DHT22;15148;48.972;12.794;2022-10-01T19:59:54;10.80;99.90
27759;DHT22;15148;48.972;12.794;2022-10-01T20:05:05;10.80;99.90
27759;DHT22;15148;48.972;12.794;2022-10-01T20:10:39;10.80;99.90
27759;DHT22;15148;48.972;12.794;2022-10-01T20:25:56;10.80;99.90
27759;DHT22;15148;48.972;12.794;2022-10-01T20:36:13;10.80;99.90
27759;DHT22;15148;48.972;12.794;2022-10-01T20:41:19;10.90;99.90
27759;DHT22;15148;48.972;12.794;2022-10-01T20:46:45;10.90;99.90
27759;DHT22;15148;48.972;12.794;2022-10-01T20:52:10;10.90;99.90
27759;DHT22;15148;48.972;12.794;2022-10-01T21:02:27;10.80;99.90
27759;DHT22;15148;48.972;12.794;2022-10-01T21:23:58;10.70;99.90
27759;DHT22;15148;48.972;12.794;2022-10-01T21:39:32;10.50;99.90
27759;DHT22;15148;48.972;12.794;2022-10-01T21:44:53;10.40;99.90
27759;DHT22;15148;48.972;12.794;2022-10-01T21:50:17;10.40;99.90
27759;DHT22;15148;48.972;12.794;2022-10-01T21:56:02;10.40;99.90
27759;DHT22;15148;48.972;12.794;2022-10-01T22:06:21;10.30;99.90
27759;DHT22;15148;48.972;12.794;2022-10-01T22:11:30;10.30;99.90
27759;DHT22;15148;48.972;12.794;2022-10-01T22:16:50;10.20;99.90
27759;DHT22;15148;48.972;12.794;2022-10-01T22:21:54;10.10;99.90
27759;DHT22;15148;48.972;12.794;2022-10-01T22:27:04;10.10;99.90
27759;DHT22;15148;48.972;12.794;2022-10-01T22:32:10;10.10;99.90
27759;DHT22;15148;48.972;12.794;2022-10-01T22:42:24;10.10;99.90
27759;DHT22;15148;48.972;12.794;2022-10-01T22:53:02;10.10;99.90
27759;DHT22;15148;48.972;12.794;2022-10-01T23:20:07;10.00;99.90
27759;DHT22;15148;48.972;12.794;2022-10-01T23:25:17;10.00;99.90
27759;DHT22;15148;48.972;12.794;2022-10-01T23:30:27;9.90;99.90
27759;DHT22;15148;48.972;12.794;2022-10-01T23:40:44;9.90;99.90
27759;DHT22;15148;48.972;12.794;2022-10-01T23:45:55;9.90;99.90
27759;DHT22;15148;48.972;12.794;2022-10-01T23:51:23;9.90;99.90
27759;DHT22;15148;48.972;12.794;2022-10-01T23:56:38;9.80;99.90
